createdAt,value
2023-01-02T00:00:47.444Z,8.70
2023-01-02T00:04:01.378Z,6.40
2023-01-02T00:07:05.452Z,6.30
2023-01-02T00:10:09.634Z,8.30
2023-01-02T00:13:14.357Z,7.10
2023-01-02T00:16:18.384Z,6.80
2023-01-02T00:19:22.504Z,6.70
2023-01-02T00:22:26.739Z,6.90
2023-01-02T00:25:30.960Z,7.80
2023-01-02T00:28:36.594Z,7.60
2023-01-02T00:31:40.623Z,7.50
2023-01-02T00:34:44.645Z,7.40
2023-01-02T00:37:48.659Z,7.40
2023-01-02T00:40:52.563Z,7.70
2023-01-02T00:43:56.472Z,7.00
2023-01-02T00:47:00.396Z,7.60
2023-01-02T00:50:05.419Z,7.30
2023-01-02T00:53:09.324Z,7.10
2023-01-02T00:56:13.225Z,8.20
2023-01-02T00:59:17.161Z,8.00
2023-01-02T01:02:21.190Z,7.30
2023-01-02T01:05:26.552Z,6.90
2023-01-02T01:08:30.452Z,7.60
2023-01-02T01:11:34.378Z,7.80
2023-01-02T01:14:38.394Z,8.00
2023-01-02T01:17:42.508Z,7.70
2023-01-02T01:20:46.446Z,7.60
2023-01-02T01:23:52.934Z,7.60
2023-01-02T01:26:57.009Z,7.00
2023-01-02T01:30:01.310Z,7.00
2023-01-02T01:33:05.353Z,7.20
2023-01-02T01:36:17.974Z,7.40
2023-01-02T01:39:21.984Z,7.40
2023-01-02T01:42:32.708Z,7.00
2023-01-02T01:45:37.021Z,8.50
2023-01-02T01:48:41.196Z,6.70
2023-01-02T01:51:50.863Z,7.20
2023-01-02T01:55:03.896Z,7.00
2023-01-02T01:58:10.490Z,7.50
2023-01-02T02:01:17.183Z,7.20
2023-01-02T02:04:22.681Z,6.90
2023-01-02T02:07:27.860Z,6.60
2023-01-02T02:10:32.295Z,7.40
2023-01-02T02:13:36.648Z,6.70
2023-01-02T02:16:59.698Z,7.20
2023-01-02T02:20:15.850Z,7.00
2023-01-02T02:24:07.162Z,7.00
2023-01-02T02:27:36.378Z,6.70
2023-01-02T02:30:53.545Z,6.90
2023-01-02T02:34:18.271Z,7.40
2023-01-02T02:37:33.035Z,6.90
2023-01-02T02:40:48.830Z,6.80
2023-01-02T02:44:04.745Z,6.80
2023-01-02T02:47:28.189Z,6.10
2023-01-02T02:50:56.752Z,6.60
2023-01-02T02:54:09.021Z,6.80
2023-01-02T02:57:14.226Z,6.70
2023-01-02T03:00:22.471Z,6.80
2023-01-02T03:03:26.474Z,6.40
2023-01-02T03:07:03.717Z,7.10
2023-01-02T03:10:26.646Z,6.50
2023-01-02T03:13:47.095Z,6.10
2023-01-02T03:16:59.693Z,5.90
2023-01-02T03:20:10.171Z,6.00
2023-01-02T03:23:20.799Z,6.50
2023-01-02T03:26:28.870Z,7.00
2023-01-02T03:29:54.535Z,6.30
2023-01-02T03:33:04.609Z,6.20
2023-01-02T03:36:16.464Z,6.10
2023-01-02T03:39:27.236Z,7.00
2023-01-02T03:42:36.103Z,6.40
2023-01-02T03:45:46.516Z,6.70
2023-01-02T03:48:52.837Z,7.10
2023-01-02T03:51:56.846Z,6.20
2023-01-02T03:55:01.478Z,6.00
2023-01-02T03:58:24.335Z,7.10
2023-01-02T04:01:40.843Z,6.10
2023-01-02T04:05:04.927Z,6.60
2023-01-02T04:08:30.434Z,6.80
2023-01-02T04:11:37.696Z,6.50
2023-01-02T04:14:46.687Z,6.60
2023-01-02T04:17:57.231Z,6.40
2023-01-02T04:21:09.449Z,6.20
2023-01-02T04:24:17.778Z,6.70
2023-01-02T04:27:35.302Z,6.50
2023-01-02T04:30:43.085Z,8.00
2023-01-02T04:33:59.163Z,6.50
2023-01-02T04:37:03.483Z,6.90
2023-01-02T04:43:22.417Z,7.50
2023-01-02T04:46:28.044Z,7.10
2023-01-02T04:49:32.184Z,6.50
2023-01-02T04:52:37.557Z,6.50
2023-01-02T04:55:41.954Z,6.60
2023-01-02T04:58:47.383Z,7.40
2023-01-02T05:01:51.330Z,9.60
2023-01-02T05:04:55.439Z,10.00
2023-01-02T05:07:59.860Z,8.00
2023-01-02T05:11:18.215Z,6.50
2023-01-02T05:14:22.235Z,6.50
2023-01-02T05:17:26.144Z,7.40
2023-01-02T05:20:30.059Z,7.70
2023-01-02T05:23:49.566Z,7.10
2023-01-02T05:26:54.527Z,7.60
2023-01-02T05:29:58.487Z,6.40
2023-01-02T05:33:02.413Z,7.20
2023-01-02T05:36:08.221Z,7.20
2023-01-02T05:39:14.464Z,5.80
2023-01-02T05:42:18.446Z,6.50
2023-01-02T05:45:22.464Z,7.20
2023-01-02T05:48:28.097Z,6.10
2023-01-02T05:51:32.080Z,6.40
2023-01-02T05:54:35.995Z,6.40
2023-01-02T05:57:40.067Z,7.10
2023-01-02T06:00:44.013Z,6.90
2023-01-02T06:03:50.360Z,6.10
2023-01-02T06:06:54.562Z,6.40
2023-01-02T06:09:58.579Z,6.60
2023-01-02T06:13:02.594Z,6.10
2023-01-02T06:16:09.189Z,7.30
2023-01-02T06:19:13.394Z,7.00
2023-01-02T06:22:17.713Z,6.80
2023-01-02T06:28:26.052Z,7.10
2023-01-02T06:31:33.366Z,7.20
2023-01-02T06:34:37.563Z,6.70
2023-01-02T06:37:45.553Z,6.30
2023-01-02T06:40:57.372Z,7.20
2023-01-02T06:44:01.323Z,6.70
2023-01-02T06:47:05.406Z,5.90
2023-01-02T06:50:10.635Z,5.80
2023-01-02T06:53:14.596Z,6.10
2023-01-02T06:56:20.951Z,6.10
2023-01-02T06:59:24.911Z,6.00
2023-01-02T07:05:33.698Z,5.90
2023-01-02T07:08:38.214Z,6.60
2023-01-02T07:14:46.259Z,5.40
2023-01-02T07:17:50.318Z,6.40
2023-01-02T07:20:54.896Z,5.90
2023-01-02T07:23:58.919Z,6.30
2023-01-02T07:27:02.962Z,6.30
2023-01-02T07:30:07.949Z,6.10
2023-01-02T07:33:11.875Z,5.60
2023-01-02T07:36:18.673Z,6.00
2023-01-02T07:39:23.313Z,6.80
2023-01-02T07:45:34.436Z,6.40
2023-01-02T07:48:38.508Z,5.50
2023-01-02T07:51:42.451Z,6.80
2023-01-02T07:54:46.556Z,7.30
2023-01-02T07:57:50.568Z,6.40
2023-01-02T08:00:59.815Z,5.90
2023-01-02T08:04:07.751Z,6.00
2023-01-02T08:10:15.860Z,6.10
2023-01-02T08:13:19.773Z,6.90
2023-01-02T08:16:23.946Z,7.00
2023-01-02T08:19:27.900Z,6.40
2023-01-02T08:22:31.824Z,6.40
2023-01-02T08:25:35.759Z,7.00
2023-01-02T08:28:41.506Z,6.60
2023-01-02T08:31:45.749Z,6.90
2023-01-02T08:34:49.713Z,6.80
2023-01-02T08:37:53.737Z,6.70
2023-01-02T08:40:59.820Z,6.90
2023-01-02T08:44:04.703Z,7.80
2023-01-02T08:47:08.747Z,7.40
2023-01-02T08:50:13.680Z,7.40
2023-01-02T08:53:18.229Z,8.50
2023-01-02T08:59:30.487Z,8.80
2023-01-02T09:02:34.611Z,8.50
2023-01-02T09:05:38.863Z,7.70
2023-01-02T09:08:42.906Z,7.30
2023-01-02T09:11:52.047Z,6.80
2023-01-02T09:14:56.051Z,7.20
2023-01-02T09:18:00.164Z,7.90
2023-01-02T09:21:04.399Z,7.80
2023-01-02T09:24:09.066Z,7.90
2023-01-02T09:27:13.654Z,8.00
2023-01-02T09:33:22.088Z,7.30
2023-01-02T09:36:26.618Z,7.00
2023-01-02T09:39:32.935Z,9.10
2023-01-02T09:42:37.128Z,7.20
2023-01-02T09:45:45.233Z,8.70
2023-01-02T09:48:49.239Z,7.80
2023-01-02T09:51:53.742Z,7.80
2023-01-02T09:54:57.885Z,6.90
2023-01-02T09:58:24.527Z,7.40
2023-01-02T10:01:34.224Z,8.00
2023-01-02T10:04:44.156Z,7.90
2023-01-02T10:07:58.089Z,7.30
2023-01-02T10:11:02.914Z,8.40
2023-01-02T10:14:26.326Z,7.90
2023-01-02T10:17:40.436Z,7.70
2023-01-02T10:20:53.978Z,7.50
2023-01-02T10:24:08.085Z,6.90
2023-01-02T10:27:20.045Z,7.60
2023-01-02T10:30:26.609Z,7.70
2023-01-02T10:33:46.396Z,7.60
2023-01-02T10:36:50.795Z,6.80
2023-01-02T10:39:55.041Z,7.00
2023-01-02T10:43:00.260Z,7.70
2023-01-02T10:46:05.135Z,6.50
2023-01-02T10:49:12.308Z,6.90
2023-01-02T10:52:29.536Z,7.10
2023-01-02T10:55:39.654Z,7.80
2023-01-02T10:58:48.953Z,8.20
2023-01-02T11:01:56.750Z,6.40
2023-01-02T11:05:02.889Z,7.70
2023-01-02T11:08:14.196Z,7.80
2023-01-02T11:11:18.463Z,6.20
2023-01-02T11:14:33.998Z,7.30
2023-01-02T11:17:43.005Z,7.10
2023-01-02T11:20:55.011Z,6.80
2023-01-02T11:24:25.865Z,7.70
2023-01-02T11:27:32.247Z,8.10
2023-01-02T11:30:47.867Z,7.00
2023-01-02T11:33:51.956Z,6.80
2023-01-02T11:37:17.461Z,6.80
2023-01-02T11:40:27.050Z,6.50
2023-01-02T11:43:50.392Z,6.50
2023-01-02T11:46:56.032Z,6.90
2023-01-02T11:50:01.104Z,7.10
2023-01-02T11:53:20.666Z,6.70
2023-01-02T11:56:33.603Z,6.70
2023-01-02T11:59:45.136Z,6.10
2023-01-02T12:02:52.441Z,6.70
2023-01-02T12:06:12.273Z,6.60
2023-01-02T12:09:45.060Z,6.30
2023-01-02T12:12:54.921Z,6.40
2023-01-02T12:16:13.938Z,6.10
2023-01-02T12:19:49.271Z,5.60
2023-01-02T12:23:32.825Z,6.60
2023-01-02T12:27:12.611Z,5.90
2023-01-02T12:34:00.470Z,5.50
2023-01-02T12:37:23.347Z,6.40
2023-01-02T12:40:56.112Z,5.40
2023-01-02T12:44:35.797Z,5.80
2023-01-02T12:47:53.368Z,5.70
2023-01-02T12:51:18.948Z,5.30
2023-01-02T12:55:00.721Z,5.60
2023-01-02T12:58:23.662Z,5.80
2023-01-02T13:01:42.299Z,4.90
2023-01-02T13:04:55.998Z,6.80
2023-01-02T13:08:13.096Z,6.50
2023-01-02T13:11:25.543Z,5.50
2023-01-02T13:14:46.966Z,5.80
2023-01-02T13:17:50.882Z,6.70
2023-01-02T13:21:04.293Z,5.90
2023-01-02T13:24:14.454Z,5.60
2023-01-02T13:27:18.706Z,6.00
2023-01-02T13:30:34.911Z,6.90
2023-01-02T13:33:41.985Z,5.60
2023-01-02T13:36:47.196Z,5.70
2023-01-02T13:39:58.922Z,6.10
2023-01-02T13:43:08.282Z,5.20
2023-01-02T13:46:37.090Z,5.20
2023-01-02T13:49:37.856Z,5.20
2023-01-02T13:52:58.506Z,5.50
2023-01-02T13:56:15.227Z,5.80
2023-01-02T13:59:41.684Z,6.80
2023-01-02T14:03:20.106Z,6.20
2023-01-02T14:06:31.842Z,6.80
2023-01-02T14:10:10.999Z,6.60
2023-01-02T14:13:22.129Z,6.10
2023-01-02T14:16:26.099Z,6.40
2023-01-02T14:19:30.703Z,7.80
2023-01-02T14:22:47.331Z,7.50
2023-01-02T14:25:51.585Z,7.10
2023-01-02T14:28:57.020Z,7.40
2023-01-02T14:32:09.514Z,8.00
2023-01-02T14:35:13.462Z,8.90
2023-01-02T14:38:20.104Z,8.50
2023-01-02T14:42:11.259Z,8.60
2023-01-02T14:45:23.828Z,7.90
2023-01-02T14:48:54.008Z,9.00
2023-01-02T14:52:03.506Z,8.20
2023-01-02T14:55:18.928Z,10.60
2023-01-02T14:58:29.329Z,8.50
2023-01-02T15:01:43.056Z,9.00
2023-01-02T15:05:06.495Z,8.90
2023-01-02T15:08:13.721Z,8.40
2023-01-02T15:11:44.262Z,9.00
2023-01-02T15:14:48.264Z,8.20
2023-01-02T15:17:54.248Z,8.30
2023-01-02T15:21:24.425Z,10.80
2023-01-02T15:24:34.620Z,10.10
2023-01-02T15:27:41.110Z,10.70
2023-01-02T15:30:45.496Z,9.90
2023-01-02T15:33:54.315Z,9.80
2023-01-02T15:37:03.086Z,10.40
2023-01-02T15:40:14.743Z,10.00
2023-01-02T15:43:37.325Z,8.80
2023-01-02T15:46:41.647Z,9.90
2023-01-02T15:49:48.616Z,10.60
2023-01-02T15:53:02.317Z,9.00
2023-01-02T15:56:12.080Z,8.70
2023-01-02T15:59:37.172Z,9.80
2023-01-02T16:02:44.398Z,8.80
2023-01-02T16:05:53.182Z,9.60
2023-01-02T16:09:00.026Z,10.70
2023-01-02T16:12:05.014Z,11.00
2023-01-02T16:15:09.950Z,13.60
2023-01-02T16:18:13.920Z,14.80
2023-01-02T16:21:18.435Z,13.20
2023-01-02T16:24:24.928Z,13.60
2023-01-02T16:27:33.643Z,11.80
2023-01-02T16:30:41.160Z,14.70
2023-01-02T16:33:46.469Z,15.70
2023-01-02T16:37:14.567Z,11.50
2023-01-02T16:40:59.011Z,9.60
2023-01-02T16:43:48.328Z,11.00
2023-01-02T16:46:52.333Z,11.40
2023-01-02T16:49:57.670Z,11.70
2023-01-02T16:53:04.501Z,11.10
2023-01-02T16:56:11.085Z,11.00
2023-01-02T16:59:15.047Z,11.40
2023-01-02T17:02:19.188Z,11.10
2023-01-02T17:05:45.300Z,9.60
2023-01-02T17:08:49.455Z,9.70
2023-01-02T17:12:02.333Z,11.80
2023-01-02T17:15:08.383Z,9.60
2023-01-02T17:18:13.438Z,9.40
2023-01-02T17:21:17.351Z,9.10
2023-01-02T17:24:21.457Z,9.90
2023-01-02T17:27:25.388Z,11.80
2023-01-02T17:30:29.401Z,10.90
2023-01-02T17:33:33.349Z,12.20
2023-01-02T17:36:37.424Z,12.20
2023-01-02T17:39:41.324Z,11.30
2023-01-02T17:42:45.707Z,10.70
2023-01-02T17:45:49.730Z,11.80
2023-01-02T17:48:54.215Z,11.10
2023-01-02T17:51:58.172Z,10.40
2023-01-02T17:55:02.236Z,10.80
2023-01-02T17:58:06.269Z,10.90
2023-01-02T18:01:15.520Z,11.10
2023-01-02T18:04:20.825Z,12.20
2023-01-02T18:07:24.729Z,10.80
2023-01-02T18:10:32.902Z,11.10
2023-01-02T18:13:57.260Z,11.20
2023-01-02T18:17:12.692Z,10.20
2023-01-02T18:20:22.069Z,10.30
2023-01-02T18:23:26.005Z,10.70
2023-01-02T18:26:31.098Z,10.70
2023-01-02T18:29:35.022Z,10.70
2023-01-02T18:32:41.858Z,11.70
2023-01-02T18:35:59.020Z,10.70
2023-01-02T18:39:17.705Z,11.60
2023-01-02T18:42:26.679Z,11.20
2023-01-02T18:45:31.384Z,12.20
2023-01-02T18:48:35.307Z,12.80
2023-01-02T18:51:39.311Z,11.90
2023-01-02T18:54:46.094Z,13.50
2023-01-02T18:58:14.608Z,16.30
2023-01-02T19:04:37.300Z,13.30
2023-01-02T19:07:41.217Z,13.70
2023-01-02T19:10:53.115Z,14.50
2023-01-02T19:13:59.076Z,13.70
2023-01-02T19:17:19.853Z,13.50
2023-01-02T19:20:26.161Z,12.30
2023-01-02T19:23:59.542Z,12.10
2023-01-02T19:27:16.533Z,12.10
2023-01-02T19:30:32.033Z,13.10
2023-01-02T19:33:42.198Z,9.90
2023-01-02T19:36:46.193Z,9.70
2023-01-02T19:39:53.608Z,10.80
2023-01-02T19:42:57.632Z,11.10
2023-01-02T19:46:05.063Z,10.60
2023-01-02T19:49:09.432Z,10.60
2023-01-02T19:52:15.910Z,11.00
2023-01-02T19:55:20.312Z,10.20
2023-01-02T19:58:24.438Z,9.90
2023-01-02T20:01:28.847Z,9.30
2023-01-02T20:04:33.092Z,10.60
2023-01-02T20:07:37.375Z,10.00
2023-01-02T20:10:41.341Z,9.80
2023-01-02T20:13:46.677Z,9.00
2023-01-02T20:16:50.801Z,9.30
2023-01-02T20:19:55.809Z,9.60
2023-01-02T20:23:01.207Z,9.60
2023-01-02T20:26:05.388Z,10.60
2023-01-02T20:29:09.346Z,9.40
2023-01-02T20:32:13.585Z,8.60
2023-01-02T20:35:17.705Z,9.00
2023-01-02T20:38:21.660Z,11.00
2023-01-02T20:41:25.686Z,9.30
2023-01-02T20:44:29.592Z,9.60
2023-01-02T20:47:35.564Z,8.90
2023-01-02T20:50:40.882Z,9.60
2023-01-02T20:53:44.921Z,8.60
2023-01-02T20:56:48.910Z,8.90
2023-01-02T20:59:53.130Z,8.10
2023-01-02T21:02:57.375Z,7.80
2023-01-02T21:06:01.575Z,8.80
2023-01-02T21:09:06.290Z,8.50
2023-01-02T21:12:30.728Z,8.20
2023-01-02T21:15:54.917Z,7.00
2023-01-02T21:18:59.964Z,7.40
2023-01-02T21:22:03.908Z,7.10
2023-01-02T21:25:07.987Z,7.10
2023-01-02T21:28:13.249Z,7.20
2023-01-02T21:31:19.218Z,6.90
2023-01-02T21:34:23.308Z,8.70
2023-01-02T21:37:27.332Z,7.40
2023-01-02T21:40:31.359Z,8.00
2023-01-02T21:43:35.239Z,8.20
2023-01-02T21:46:39.181Z,7.10
2023-01-02T21:49:44.543Z,6.90
2023-01-02T21:52:48.691Z,6.30
2023-01-02T21:55:52.590Z,6.30
2023-01-02T21:58:57.791Z,7.00
2023-01-02T22:02:04.111Z,6.50
2023-01-02T22:05:10.485Z,7.50
2023-01-02T22:08:14.450Z,7.90
2023-01-02T22:11:37.094Z,7.50
2023-01-02T22:14:41.107Z,7.00
2023-01-02T22:17:45.129Z,8.20
2023-01-02T22:20:49.043Z,6.70
2023-01-02T22:23:53.061Z,7.30
2023-01-02T22:27:01.411Z,6.80
2023-01-02T22:30:21.551Z,5.10
2023-01-02T22:33:28.639Z,6.40
2023-01-02T22:36:33.679Z,7.20
2023-01-02T22:39:38.944Z,6.60
2023-01-02T22:43:10.487Z,6.40
2023-01-02T22:46:23.606Z,6.50
2023-01-02T22:49:31.323Z,6.40
2023-01-02T22:52:35.603Z,6.60
2023-01-02T22:55:40.469Z,6.90
2023-01-02T22:58:44.977Z,6.30
2023-01-02T23:04:54.004Z,6.90
2023-01-02T23:07:57.903Z,5.20
2023-01-02T23:11:03.197Z,6.40
2023-01-02T23:14:07.554Z,5.80
2023-01-02T23:17:44.959Z,6.70
2023-01-02T23:20:48.975Z,6.00
2023-01-02T23:23:53.919Z,6.80
2023-01-02T23:27:00.276Z,6.40
2023-01-02T23:30:05.129Z,7.00
2023-01-02T23:33:09.025Z,7.40
2023-01-02T23:36:12.953Z,6.70
2023-01-02T23:39:20.513Z,6.90
2023-01-02T23:42:24.474Z,6.00
2023-01-02T23:45:28.450Z,6.70
2023-01-02T23:48:32.494Z,6.40
2023-01-02T23:51:38.766Z,7.50
2023-01-02T23:54:43.189Z,7.20
2023-01-02T23:57:47.093Z,6.50
